Terminal Aerodrome Forecast
Issued by NWS

Home | Current Version | Previous Version | Text Only | Print | Product List | Glossary On
Versions: 1 2 3 4 5 6 7 8 9 10 11 12 13 14
015
FTPA31 PHFO 241122
TAFHMK
TAF
PHMK 241122Z 2412/2512 05006KT P6SM FEW025 SCT045
     FM242000 03012G19KT P6SM FEW025 SCT045
     FM250500 03007KT P6SM FEW025 SCT045=

USA.gov is the U.S. government's official web portal to all federal, state and local government web resources and services.